Terminal Aerodrome Forecast
Issued by NWS

Home | Current Version | Previous Version | Graphics & Text | Print | Product List | Glossary On
Versions: 1 2 3 4 5 6 7 8 9 10 11 12 13
000
FTUS42 KMHX 242334
TAFPGV
TAF
KPGV 242334Z 2500/2524 21008KT P6SM SKC
     FM250900 20003KT 3SM BR SKC
     FM251300 21007KT P6SM SCT250
     FM251800 23010KT P6SM BKN045
     FM252300 18006KT P6SM SCT045
      AMD LTD TO CLD VIS AND WIND=

USA.gov is the U.S. government's official web portal to all federal, state and local government web resources and services.